Time;durP1;ratioP1;P1;durP2;ratioP2;P2;SDS_P1;SDS_P2;PMS_P1;PMS_P2;Temp;Humidity;BMP_temperature;BMP_pressure;BME280_temperature;BME280_humidity;BME280_pressure;Samples;Min_cycle;Max_cycle;Signal;HPM_P1;HPM_P2
2023/11/24 00:00:57;;;;;;;;;;;;;;;;;;4182351;28;20007;-61
2023/11/24 00:02:58;;;;;;;;;;;;;;;;;;4182568;28;20450;-61
2023/11/24 00:05:00;;;;;;;;;;;;;;;;;;4182794;28;20007;-61
2023/11/24 00:07:03;;;;;;;;;;;;;;;;;;4198938;28;20369;-60
2023/11/24 00:09:05;;;;;;;;;;;;;;;;;;4188757;28;19925;-61
2023/11/24 00:11:06;;;;;;;;;;;;;;;;;;4182429;28;19990;-61
2023/11/24 00:13:07;;;;;;;;;;;;;;;;;;4182692;28;20383;-61
2023/11/24 00:15:09;;;;;;;;;;;;;;;;;;4182436;28;19925;-61
2023/11/24 00:17:11;;;;;;;;;;;;;;;;;;4182954;28;19966;-61
2023/11/24 00:19:15;;;;;;;;;;;;;;;;;;4182345;28;19994;-61
2023/11/24 00:21:17;;;;;;;;;;;;;;;;;;4182616;28;19971;-61
2023/11/24 00:23:18;;;;;;;;;;;;;;;;;;4182232;28;19924;-61
2023/11/24 00:25:20;;;;;;;;;;;;;;;;;;4182745;28;20367;-61
2023/11/24 00:27:22;;;;;;;;;;;;;;;;;;4182532;28;19987;-61
2023/11/24 00:29:23;;;;;;;;;;;;;;;;;;4182275;28;19920;-61
2023/11/24 00:31:25;;;;;;;;;;;;;;;;;;4182092;28;20451;-61
2023/11/24 00:33:28;;;;;;;;;;;;;;;;;;4182510;28;19931;-61
2023/11/24 00:35:31;;;;;;;;;;;;;;;;;;4182347;28;19921;-61
2023/11/24 00:37:33;;;;;;;;;;;;;;;;;;4182421;28;19924;-61
2023/11/24 00:39:36;;;;;;;;;;;;;;;;;;4171611;28;19921;-61
2023/11/24 00:41:38;;;;;;;;;;;;;;;;;;4165742;28;19932;-62
2023/11/24 00:43:39;;;;;;;;;;;;;;;;;;4165510;28;19925;-61
2023/11/24 00:45:41;;;;;;;;;;;;;;;;;;4165648;28;20253;-61
2023/11/24 00:47:42;;;;;;;;;;;;;;;;;;4165334;28;19948;-60
2023/11/24 00:49:45;;;;;;;;;;;;;;;;;;4165656;28;19967;-62
2023/11/24 00:51:47;;;;;;;;;;;;;;;;;;4164997;28;19932;-61
2023/11/24 00:53:48;;;;;;;;;;;;;;;;;;4165631;28;19980;-61
2023/11/24 00:55:50;;;;;;;;;;;;;;;;;;4165521;28;19921;-61
2023/11/24 00:57:52;;;;;;;;;;;;;;;;;;4165369;28;19924;-61
2023/11/24 00:59:54;;;;;;;;;;;;;;;;;;4165649;28;19928;-61
2023/11/24 01:01:55;;;;;;;;;;;;;;;;;;4177849;28;20399;-61
2023/11/24 01:03:58;;;;;;;;;;;;;;;;;;4181329;28;19924;-61
2023/11/24 01:06:00;;;;;;;;;;;;;;;;;;4189164;28;19921;-61
2023/11/24 01:08:01;;;;;;;;;;;;;;;;;;4196683;28;19921;-61
2023/11/24 01:10:03;;;;;;;;;;;;;;;;;;4164006;28;19924;-61
2023/11/24 01:12:05;;;;;;;;;;;;;;;;;;4181659;28;20023;-61
2023/11/24 01:14:06;;;;;;;;;;;;;;;;;;4181943;28;19964;-61
2023/11/24 01:16:08;;;;;;;;;;;;;;;;;;4181580;28;20426;-61
2023/11/24 01:18:09;;;;;;;;;;;;;;;;;;4181734;28;20384;-61
2023/11/24 01:20:11;;;;;;;;;;;;;;;;;;4181544;28;19925;-61
2023/11/24 01:22:12;;;;;;;;;;;;;;;;;;4181350;28;19929;-61
2023/11/24 01:24:14;;;;;;;;;;;;;;;;;;4181490;28;19960;-61
2023/11/24 01:26:16;;;;;;;;;;;;;;;;;;4181567;28;19943;-61
2023/11/24 01:28:18;;;;;;;;;;;;;;;;;;4181696;28;19963;-57
2023/11/24 01:30:19;;;;;;;;;;;;;;;;;;4181363;28;19931;-58
2023/11/24 01:32:21;;;;;;;;;;;;;;;;;;4181320;28;20367;-58
2023/11/24 01:34:22;;;;;;;;;;;;;;;;;;4181273;28;20339;-57
2023/11/24 01:36:24;;;;;;;;;;;;;;;;;;4165742;28;19931;-57
2023/11/24 01:38:26;;;;;;;;;;;;;;;;;;4164987;28;20361;-58
2023/11/24 01:40:27;;;;;;;;;;;;;;;;;;4164643;28;19921;-57
2023/11/24 01:42:29;;;;;;;;;;;;;;;;;;4164723;28;19932;-58
2023/11/24 01:44:30;;;;;;;;;;;;;;;;;;4165097;28;19968;-58
2023/11/24 01:46:33;;;;;;;;;;;;;;;;;;4164878;28;19921;-57
2023/11/24 01:48:35;;;;;;;;;;;;;;;;;;4164920;28;20451;-58
2023/11/24 01:50:36;;;;;;;;;;;;;;;;;;4164724;28;19921;-58
2023/11/24 01:52:38;;;;;;;;;;;;;;;;;;4164811;28;19921;-58
2023/11/24 01:54:39;;;;;;;;;;;;;;;;;;4164628;28;20270;-58
2023/11/24 01:56:41;;;;;;;;;;;;;;;;;;4164610;28;19921;-57
2023/11/24 01:58:42;;;;;;;;;;;;;;;;;;4163972;28;19963;-58
2023/11/24 02:00:43;;;;;;;;;;;;;;;;;;4178264;22;20110;-62
2023/11/24 02:02:45;;;;;;;;;;;;;;;;;;4164035;28;19967;-61
2023/11/24 02:04:49;;;;;;;;;;;;;;;;;;4164104;28;19928;-62
2023/11/24 02:06:51;;;;;;;;;;;;;;;;;;4164531;28;19921;-62
2023/11/24 02:08:52;;;;;;;;;;;;;;;;;;4165064;28;19948;-62
2023/11/24 02:10:54;;;;;;;;;;;;;;;;;;4181218;28;20356;-62
2023/11/24 02:12:56;;;;;;;;;;;;;;;;;;4181375;28;19920;-62
2023/11/24 02:14:57;;;;;;;;;;;;;;;;;;4163239;28;20346;-62
2023/11/24 02:16:59;;;;;;;;;;;;;;;;;;4168692;28;19924;-61
2023/11/24 02:19:01;;;;;;;;;;;;;;;;;;4164654;28;19971;-62
2023/11/24 02:21:02;;;;;;;;;;;;;;;;;;4164322;28;20403;-62
2023/11/24 02:23:04;;;;;;;;;;;;;;;;;;4164479;28;20277;-61
2023/11/24 02:25:06;;;;;;;;;;;;;;;;;;4164679;28;20368;-62
2023/11/24 02:27:07;;;;;;;;;;;;;;;;;;4164617;28;19929;-62
2023/11/24 02:29:09;;;;;;;;;;;;;;;;;;4164529;28;19921;-62
2023/11/24 02:31:11;;;;;;;;;;;;;;;;;;4164257;28;19925;-62
2023/11/24 02:33:13;;;;;;;;;;;;;;;;;;4164365;28;19921;-61
2023/11/24 02:35:15;;;;;;;;;;;;;;;;;;4164247;28;19921;-61
2023/11/24 02:37:17;;;;;;;;;;;;;;;;;;4164580;28;19925;-61
2023/11/24 02:39:18;;;;;;;;;;;;;;;;;;4164343;28;19921;-62
2023/11/24 02:41:22;;;;;;;;;;;;;;;;;;4164377;28;20332;-61
2023/11/24 02:43:24;;;;;;;;;;;;;;;;;;4164758;28;19975;-62
2023/11/24 02:45:26;;;;;;;;;;;;;;;;;;4164556;28;19927;-62
2023/11/24 02:47:27;;;;;;;;;;;;;;;;;;4164463;28;20433;-62
2023/11/24 02:49:32;;;;;;;;;;;;;;;;;;4146649;28;19925;-62
2023/11/24 02:51:34;;;;;;;;;;;;;;;;;;4164025;28;19928;-62
2023/11/24 02:53:35;;;;;;;;;;;;;;;;;;4164125;28;19936;-61
2023/11/24 02:55:37;;;;;;;;;;;;;;;;;;4164283;28;20024;-62
2023/11/24 02:57:39;;;;;;;;;;;;;;;;;;4164411;28;20426;-62
2023/11/24 02:59:40;;;;;;;;;;;;;;;;;;4163980;28;19927;-62
2023/11/24 03:01:42;;;;;;;;;;;;;;;;;;4174515;28;20351;-62
2023/11/24 03:03:43;;;;;;;;;;;;;;;;;;4171533;28;19928;-62
2023/11/24 03:05:45;;;;;;;;;;;;;;;;;;4158592;28;19920;-62
2023/11/24 03:07:47;;;;;;;;;;;;;;;;;;4180539;28;19932;-62
2023/11/24 03:09:48;;;;;;;;;;;;;;;;;;4146158;28;19956;-62
2023/11/24 03:11:50;;;;;;;;;;;;;;;;;;4180483;28;20023;-62
2023/11/24 03:13:52;;;;;;;;;;;;;;;;;;4180487;28;20335;-61
2023/11/24 03:15:56;;;;;;;;;;;;;;;;;;4179691;28;19921;-62
2023/11/24 03:17:58;;;;;;;;;;;;;;;;;;4167176;28;20273;-62
2023/11/24 03:19:59;;;;;;;;;;;;;;;;;;4166935;28;20335;-61
2023/11/24 03:22:01;;;;;;;;;;;;;;;;;;4167095;28;20011;-62
2023/11/24 03:24:03;;;;;;;;;;;;;;;;;;4149630;28;19921;-62
2023/11/24 03:26:05;;;;;;;;;;;;;;;;;;4166712;28;19921;-62
2023/11/24 03:28:06;;;;;;;;;;;;;;;;;;4167002;28;20132;-62
2023/11/24 03:30:09;;;;;;;;;;;;;;;;;;4166692;28;19925;-61
2023/11/24 03:32:10;;;;;;;;;;;;;;;;;;4166968;28;20007;-61
2023/11/24 03:34:12;;;;;;;;;;;;;;;;;;4166937;28;19921;-61
2023/11/24 03:36:14;;;;;;;;;;;;;;;;;;4166738;28;19996;-62
2023/11/24 03:38:16;;;;;;;;;;;;;;;;;;4166811;28;19925;-61
2023/11/24 03:40:18;;;;;;;;;;;;;;;;;;4166802;28;19932;-62
2023/11/24 03:42:19;;;;;;;;;;;;;;;;;;4167035;28;19925;-62
2023/11/24 03:44:23;;;;;;;;;;;;;;;;;;4166826;28;19987;-62
2023/11/24 03:46:25;;;;;;;;;;;;;;;;;;4166619;28;19921;-62
2023/11/24 03:48:30;;;;;;;;;;;;;;;;;;4148946;28;19922;-62
2023/11/24 03:50:31;;;;;;;;;;;;;;;;;;4149111;28;20028;-62
2023/11/24 03:52:34;;;;;;;;;;;;;;;;;;4166605;28;19925;-62
2023/11/24 03:54:35;;;;;;;;;;;;;;;;;;4166372;28;19927;-62
2023/11/24 03:56:37;;;;;;;;;;;;;;;;;;4166554;28;20390;-61
2023/11/24 03:58:39;;;;;;;;;;;;;;;;;;4166292;28;19975;-61
2023/11/24 04:00:40;;;;;;;;;;;;;;;;;;4160528;28;19925;-62
2023/11/24 04:02:42;;;;;;;;;;;;;;;;;;4183057;28;20003;-62
2023/11/24 04:04:46;;;;;;;;;;;;;;;;;;4182985;28;19920;-62
2023/11/24 04:06:47;;;;;;;;;;;;;;;;;;4168827;28;19929;-62
2023/11/24 04:08:49;;;;;;;;;;;;;;;;;;4156232;28;19928;-61
2023/11/24 04:10:51;;;;;;;;;;;;;;;;;;4182794;28;20298;-61
2023/11/24 04:12:52;;;;;;;;;;;;;;;;;;4182527;28;19975;-61
2023/11/24 04:14:54;;;;;;;;;;;;;;;;;;4182806;28;19928;-61
2023/11/24 04:16:55;;;;;;;;;;;;;;;;;;4170766;28;19920;-61
2023/11/24 04:18:59;;;;;;;;;;;;;;;;;;4165837;28;19921;-62
2023/11/24 04:21:01;;;;;;;;;;;;;;;;;;4148295;28;19925;-61
2023/11/24 04:23:02;;;;;;;;;;;;;;;;;;4148381;28;19921;-61
2023/11/24 04:25:07;;;;;;;;;;;;;;;;;;4166154;28;19921;-61
2023/11/24 04:27:09;;;;;;;;;;;;;;;;;;4165009;28;20339;-61
2023/11/24 04:29:11;;;;;;;;;;;;;;;;;;4166331;28;19925;-62
2023/11/24 04:31:12;;;;;;;;;;;;;;;;;;4165854;28;19928;-62
2023/11/24 04:33:14;;;;;;;;;;;;;;;;;;4148514;28;19932;-62
2023/11/24 04:35:15;;;;;;;;;;;;;;;;;;4165982;28;19932;-63
2023/11/24 04:37:20;;;;;;;;;;;;;;;;;;4165712;28;20300;-63
2023/11/24 04:39:21;;;;;;;;;;;;;;;;;;4165634;28;19925;-62
2023/11/24 04:41:23;;;;;;;;;;;;;;;;;;4165793;28;20270;-62
2023/11/24 04:43:26;;;;;;;;;;;;;;;;;;4148100;28;19933;-62
2023/11/24 04:45:27;;;;;;;;;;;;;;;;;;4165770;28;19971;-63
2023/11/24 04:47:29;;;;;;;;;;;;;;;;;;4148230;28;19926;-62
2023/11/24 04:49:31;;;;;;;;;;;;;;;;;;4165677;28;19921;-62
2023/11/24 04:51:32;;;;;;;;;;;;;;;;;;4165643;28;20339;-62
2023/11/24 04:53:34;;;;;;;;;;;;;;;;;;4165545;28;19921;-62
2023/11/24 04:55:37;;;;;;;;;;;;;;;;;;4165336;28;19964;-62
2023/11/24 04:57:38;;;;;;;;;;;;;;;;;;4149562;28;19925;-62
2023/11/24 04:59:40;;;;;;;;;;;;;;;;;;4149182;28;20016;-62
2023/11/24 05:01:42;;;;;;;;;;;;;;;;;;4170273;28;20326;-62
2023/11/24 05:03:44;;;;;;;;;;;;;;;;;;4181688;28;20296;-62
2023/11/24 05:05:46;;;;;;;;;;;;;;;;;;4181859;28;19927;-62
2023/11/24 05:07:47;;;;;;;;;;;;;;;;;;4181960;28;19921;-62
2023/11/24 05:09:49;;;;;;;;;;;;;;;;;;4179567;28;19931;-62
2023/11/24 05:11:50;;;;;;;;;;;;;;;;;;4147237;28;20580;-61
2023/11/24 05:13:52;;;;;;;;;;;;;;;;;;4162645;28;19971;-62
2023/11/24 05:15:53;;;;;;;;;;;;;;;;;;4164992;28;19928;-61
2023/11/24 05:17:55;;;;;;;;;;;;;;;;;;4170035;28;19927;-62
2023/11/24 05:19:57;;;;;;;;;;;;;;;;;;4180497;28;19921;-62
2023/11/24 05:21:58;;;;;;;;;;;;;;;;;;4164852;28;20392;-61
2023/11/24 05:24:00;;;;;;;;;;;;;;;;;;4165236;28;19921;-63
2023/11/24 05:26:02;;;;;;;;;;;;;;;;;;4165352;28;19929;-62
2023/11/24 05:28:04;;;;;;;;;;;;;;;;;;4147278;28;19932;-62
2023/11/24 05:30:08;;;;;;;;;;;;;;;;;;4164879;28;19924;-62
2023/11/24 05:32:11;;;;;;;;;;;;;;;;;;4164889;28;19987;-61
2023/11/24 05:34:13;;;;;;;;;;;;;;;;;;4164981;28;19928;-63
2023/11/24 05:36:14;;;;;;;;;;;;;;;;;;4147440;28;20047;-63
2023/11/24 05:38:16;;;;;;;;;;;;;;;;;;4164833;28;19925;-61
2023/11/24 05:40:18;;;;;;;;;;;;;;;;;;4164973;28;19921;-61
2023/11/24 05:42:19;;;;;;;;;;;;;;;;;;4164754;28;20010;-61
2023/11/24 05:44:21;;;;;;;;;;;;;;;;;;4163174;28;19929;-61
2023/11/24 05:46:23;;;;;;;;;;;;;;;;;;4147252;28;19921;-62
2023/11/24 05:48:25;;;;;;;;;;;;;;;;;;4164965;28;19921;-61
2023/11/24 05:50:30;;;;;;;;;;;;;;;;;;4147177;28;20407;-62
2023/11/24 05:52:31;;;;;;;;;;;;;;;;;;4159657;28;20024;-61
2023/11/24 05:54:34;;;;;;;;;;;;;;;;;;4131018;28;19921;-61
2023/11/24 05:56:36;;;;;;;;;;;;;;;;;;4148510;28;20000;-62
2023/11/24 05:58:37;;;;;;;;;;;;;;;;;;4148609;28;19925;-61
2023/11/24 06:00:39;;;;;;;;;;;;;;;;;;4152513;28;19951;-61
2023/11/24 06:02:41;;;;;;;;;;;;;;;;;;4181352;28;19936;-61
2023/11/24 06:04:42;;;;;;;;;;;;;;;;;;4163516;28;20003;-61
2023/11/24 06:06:44;;;;;;;;;;;;;;;;;;4167418;28;19940;-62
2023/11/24 06:08:46;;;;;;;;;;;;;;;;;;4165669;28;20372;-61
2023/11/24 06:10:48;;;;;;;;;;;;;;;;;;4164617;28;19925;-62
2023/11/24 06:12:49;;;;;;;;;;;;;;;;;;4163273;28;19921;-61
2023/11/24 06:14:51;;;;;;;;;;;;;;;;;;4164724;28;19921;-61
2023/11/24 06:16:53;;;;;;;;;;;;;;;;;;4164568;28;19920;-62
2023/11/24 06:18:54;;;;;;;;;;;;;;;;;;4164348;28;19921;-61
2023/11/24 06:20:56;;;;;;;;;;;;;;;;;;4164305;28;19929;-61
2023/11/24 06:22:58;;;;;;;;;;;;;;;;;;4164249;28;20216;-61
2023/11/24 06:24:59;;;;;;;;;;;;;;;;;;4164406;28;20415;-61
2023/11/24 06:27:01;;;;;;;;;;;;;;;;;;4164379;28;19928;-62
2023/11/24 06:29:03;;;;;;;;;;;;;;;;;;4164337;28;20399;-62
2023/11/24 06:31:07;;;;;;;;;;;;;;;;;;4162557;28;19925;-62
2023/11/24 06:33:09;;;;;;;;;;;;;;;;;;4160423;28;20377;-62
2023/11/24 06:35:11;;;;;;;;;;;;;;;;;;4164532;28;20392;-61
2023/11/24 06:37:13;;;;;;;;;;;;;;;;;;4160529;28;20318;-61
2023/11/24 06:39:15;;;;;;;;;;;;;;;;;;4163816;28;20020;-61
2023/11/24 06:41:17;;;;;;;;;;;;;;;;;;4163545;28;19948;-61
2023/11/24 06:43:18;;;;;;;;;;;;;;;;;;4163935;28;19935;-62
2023/11/24 06:45:20;;;;;;;;;;;;;;;;;;4146439;28;20329;-61
2023/11/24 06:47:24;;;;;;;;;;;;;;;;;;4164290;28;19921;-62
2023/11/24 06:49:29;;;;;;;;;;;;;;;;;;4154831;28;19921;-61
2023/11/24 06:51:32;;;;;;;;;;;;;;;;;;4151304;28;20361;-61
2023/11/24 06:53:33;;;;;;;;;;;;;;;;;;4151242;28;20399;-61
2023/11/24 06:55:35;;;;;;;;;;;;;;;;;;4150831;28;19921;-62
2023/11/24 06:57:36;;;;;;;;;;;;;;;;;;4150997;28;20385;-61
2023/11/24 06:59:38;;;;;;;;;;;;;;;;;;4151105;28;20281;-62
2023/11/24 07:01:39;;;;;;;;;;;;;;;;;;4171483;28;19924;-61
2023/11/24 07:03:41;;;;;;;;;;;;;;;;;;4165983;28;19934;-61
2023/11/24 07:05:42;;;;;;;;;;;;;;;;;;4171588;28;20343;-61
2023/11/24 07:07:44;;;;;;;;;;;;;;;;;;4167251;28;20015;-61
2023/11/24 07:09:46;;;;;;;;;;;;;;;;;;4182760;28;19964;-62
2023/11/24 07:11:47;;;;;;;;;;;;;;;;;;4183313;28;19921;-62
2023/11/24 07:13:52;;;;;;;;;;;;;;;;;;4183653;28;19981;-61
2023/11/24 07:15:55;;;;;;;;;;;;;;;;;;4183317;28;19921;-61
2023/11/24 07:17:57;;;;;;;;;;;;;;;;;;4183691;28;20003;-62
2023/11/24 07:19:58;;;;;;;;;;;;;;;;;;4180386;28;19921;-61
2023/11/24 07:22:02;;;;;;;;;;;;;;;;;;4166990;28;19921;-62
2023/11/24 07:24:04;;;;;;;;;;;;;;;;;;4166747;28;19974;-61
2023/11/24 07:26:07;;;;;;;;;;;;;;;;;;4167006;28;19960;-61
2023/11/24 07:28:09;;;;;;;;;;;;;;;;;;4166947;28;20386;-61
2023/11/24 07:30:11;;;;;;;;;;;;;;;;;;4166677;28;19978;-61
2023/11/24 07:32:14;;;;;;;;;;;;;;;;;;4166903;28;19933;-62
2023/11/24 07:34:16;;;;;;;;;;;;;;;;;;4166677;28;19921;-62
2023/11/24 07:36:20;;;;;;;;;;;;;;;;;;4166939;28;19922;-61
2023/11/24 07:38:24;;;;;;;;;;;;;;;;;;4166870;28;19927;-61
2023/11/24 07:40:25;;;;;;;;;;;;;;;;;;4166658;28;19952;-62
2023/11/24 07:42:27;;;;;;;;;;;;;;;;;;4166823;28;19921;-61
2023/11/24 07:44:31;;;;;;;;;;;;;;;;;;4166368;28;19929;-61
2023/11/24 07:46:33;;;;;;;;;;;;;;;;;;4132905;28;20012;-61
2023/11/24 07:48:34;;;;;;;;;;;;;;;;;;4132868;28;20005;-61
2023/11/24 07:50:38;;;;;;;;;;;;;;;;;;4150258;28;19952;-61
2023/11/24 07:52:40;;;;;;;;;;;;;;;;;;4150488;28;19925;-61
2023/11/24 07:54:41;;;;;;;;;;;;;;;;;;4150052;28;20397;-61
2023/11/24 07:56:43;;;;;;;;;;;;;;;;;;4150293;28;19927;-61
2023/11/24 07:58:44;;;;;;;;;;;;;;;;;;4150246;28;19921;-61
2023/11/24 08:00:46;;;;;;;;;;;;;;;;;;4136492;28;19925;-61
2023/11/24 08:02:47;;;;;;;;;;;;;;;;;;4148780;28;19925;-62
2023/11/24 08:04:49;;;;;;;;;;;;;;;;;;4150132;28;19941;-62
2023/11/24 08:06:51;;;;;;;;;;;;;;;;;;4164397;28;19967;-62
2023/11/24 08:08:52;;;;;;;;;;;;;;;;;;4165912;28;19925;-61
2023/11/24 08:10:54;;;;;;;;;;;;;;;;;;4166004;28;20381;-61
2023/11/24 08:12:55;;;;;;;;;;;;;;;;;;4166317;28;19932;-62
2023/11/24 08:14:58;;;;;;;;;;;;;;;;;;4166347;28;19925;-61
2023/11/24 08:17:00;;;;;;;;;;;;;;;;;;4156683;28;19929;-62
2023/11/24 08:19:02;;;;;;;;;;;;;;;;;;4149827;28;19931;-62
2023/11/24 08:21:04;;;;;;;;;;;;;;;;;;4149846;28;20344;-62
2023/11/24 08:23:06;;;;;;;;;;;;;;;;;;4149687;28;19972;-62
2023/11/24 08:25:09;;;;;;;;;;;;;;;;;;4149727;28;19925;-61
2023/11/24 08:27:11;;;;;;;;;;;;;;;;;;4149781;28;19936;-62
2023/11/24 08:29:13;;;;;;;;;;;;;;;;;;4149732;28;19928;-62
2023/11/24 08:31:15;;;;;;;;;;;;;;;;;;4149627;28;19921;-62
2023/11/24 08:33:17;;;;;;;;;;;;;;;;;;4148098;28;20381;-63
2023/11/24 08:35:20;;;;;;;;;;;;;;;;;;4149839;28;19921;-63
2023/11/24 08:37:21;;;;;;;;;;;;;;;;;;4149631;28;20388;-63
2023/11/24 08:39:23;;;;;;;;;;;;;;;;;;4149352;28;19925;-64
2023/11/24 08:41:24;;;;;;;;;;;;;;;;;;4148098;28;19928;-62
2023/11/24 08:43:37;;;;;;;;;;;;;;;;;;4133214;28;20362;-62
2023/11/24 08:45:39;;;;;;;;;;;;;;;;;;4133307;28;19949;-64
2023/11/24 08:47:41;;;;;;;;;;;;;;;;;;4133044;28;19929;-63
2023/11/24 08:49:42;;;;;;;;;;;;;;;;;;4133106;28;19922;-63
2023/11/24 08:51:44;;;;;;;;;;;;;;;;;;4133119;28;20031;-64
2023/11/24 08:53:45;;;;;;;;;;;;;;;;;;4133013;28;19928;-63
2023/11/24 08:55:47;;;;;;;;;;;;;;;;;;4133238;28;19921;-63
2023/11/24 08:57:49;;;;;;;;;;;;;;;;;;4141613;28;19921;-64
2023/11/24 08:59:51;;;;;;;;;;;;;;;;;;4149309;28;19956;-63
2023/11/24 09:01:53;;;;;;;;;;;;;;;;;;4172375;28;20364;-63
2023/11/24 09:03:58;;;;;;;;;;;;;;;;;;4181914;28;19975;-63
2023/11/24 09:06:00;;;;;;;;;;;;;;;;;;4174030;28;20016;-63
2023/11/24 09:08:02;;;;;;;;;;;;;;;;;;4166468;28;19963;-63
2023/11/24 09:10:04;;;;;;;;;;;;;;;;;;4181808;28;19974;-64
2023/11/24 09:12:06;;;;;;;;;;;;;;;;;;4181640;28;19967;-64
2023/11/24 09:14:08;;;;;;;;;;;;;;;;;;4149012;28;19925;-64
2023/11/24 09:16:09;;;;;;;;;;;;;;;;;;4148762;28;19928;-64
2023/11/24 09:18:11;;;;;;;;;;;;;;;;;;4148963;28;19929;-64
2023/11/24 09:20:16;;;;;;;;;;;;;;;;;;4148734;28;20300;-64
2023/11/24 09:22:19;;;;;;;;;;;;;;;;;;4148825;28;19971;-64
2023/11/24 09:24:21;;;;;;;;;;;;;;;;;;4139633;28;19969;-64
2023/11/24 09:26:22;;;;;;;;;;;;;;;;;;4165169;28;19940;-64
2023/11/24 09:28:24;;;;;;;;;;;;;;;;;;4164824;28;19921;-64
2023/11/24 09:30:25;;;;;;;;;;;;;;;;;;4165214;28;19925;-64
2023/11/24 09:32:27;;;;;;;;;;;;;;;;;;4165180;28;20331;-64
2023/11/24 09:34:28;;;;;;;;;;;;;;;;;;4165142;28;19931;-65
2023/11/24 09:36:30;;;;;;;;;;;;;;;;;;4165135;28;20028;-64
2023/11/24 09:38:33;;;;;;;;;;;;;;;;;;4152059;28;19976;-64
2023/11/24 09:40:37;;;;;;;;;;;;;;;;;;4148675;28;20281;-64
2023/11/24 09:42:39;;;;;;;;;;;;;;;;;;4130475;28;19926;-64
2023/11/24 09:44:42;;;;;;;;;;;;;;;;;;4130960;28;19929;-64
2023/11/24 09:46:44;;;;;;;;;;;;;;;;;;4148560;28;19927;-64
2023/11/24 09:48:52;;;;;;;;;;;;;;;;;;4148652;28;19922;-65
2023/11/24 09:50:53;;;;;;;;;;;;;;;;;;4148363;28;19948;-64
2023/11/24 09:52:55;;;;;;;;;;;;;;;;;;4148306;28;20341;-64
2023/11/24 09:55:00;;;;;;;;;;;;;;;;;;4163933;28;20351;-64
2023/11/24 09:57:02;;;;;;;;;;;;;;;;;;4164665;28;20008;-64
2023/11/24 09:59:08;;;;;;;;;;;;;;;;;;4164883;28;19928;-64
2023/11/24 10:01:10;;;;;;;;;;;;;;;;;;4170690;28;19967;-63
2023/11/24 10:03:11;;;;;;;;;;;;;;;;;;4180715;28;19936;-64
2023/11/24 10:05:13;;;;;;;;;;;;;;;;;;4180398;28;19951;-64
2023/11/24 10:07:14;;;;;;;;;;;;;;;;;;4180561;28;19920;-63
2023/11/24 10:09:16;;;;;;;;;;;;;;;;;;4172322;28;19921;-63
2023/11/24 10:11:27;;;;;;;;;;;;;;;;;;4163933;28;19971;-63
2023/11/24 10:13:29;;;;;;;;;;;;;;;;;;4146377;28;19953;-63
2023/11/24 10:15:31;;;;;;;;;;;;;;;;;;4163755;28;20026;-63
2023/11/24 10:17:33;;;;;;;;;;;;;;;;;;4163688;28;20280;-64
2023/11/24 10:19:34;;;;;;;;;;;;;;;;;;4163547;28;20261;-64
2023/11/24 10:21:36;;;;;;;;;;;;;;;;;;4164121;28;20376;-63
2023/11/24 10:23:38;;;;;;;;;;;;;;;;;;4163962;28;19921;-63
2023/11/24 10:25:40;;;;;;;;;;;;;;;;;;4165781;28;19921;-63
2023/11/24 10:27:42;;;;;;;;;;;;;;;;;;4166816;28;19929;-63
2023/11/24 10:29:43;;;;;;;;;;;;;;;;;;4148781;28;20011;-63
2023/11/24 10:31:45;;;;;;;;;;;;;;;;;;4166929;28;20233;-63
2023/11/24 10:33:46;;;;;;;;;;;;;;;;;;4161614;28;19992;-63
2023/11/24 10:35:49;;;;;;;;;;;;;;;;;;4150077;28;20097;-63
2023/11/24 10:37:50;;;;;;;;;;;;;;;;;;4150407;28;19921;-63
2023/11/24 10:39:52;;;;;;;;;;;;;;;;;;4150318;28;20376;-64
2023/11/24 10:41:54;;;;;;;;;;;;;;;;;;4149833;28;20300;-63
2023/11/24 10:43:56;;;;;;;;;;;;;;;;;;4150310;28;19928;-63
2023/11/24 10:45:58;;;;;;;;;;;;;;;;;;4150184;28;19925;-63
2023/11/24 10:47:59;;;;;;;;;;;;;;;;;;4132833;28;19922;-63
2023/11/24 10:50:01;;;;;;;;;;;;;;;;;;4155133;28;20365;-63
2023/11/24 10:52:03;;;;;;;;;;;;;;;;;;4158731;28;19925;-63
2023/11/24 10:54:04;;;;;;;;;;;;;;;;;;4163125;28;20548;-63
2023/11/24 10:56:06;;;;;;;;;;;;;;;;;;4164111;28;19925;-63
2023/11/24 10:58:07;;;;;;;;;;;;;;;;;;4166061;28;20373;-63
2023/11/24 11:00:09;;;;;;;;;;;;;;;;;;4161837;28;19929;-63
2023/11/24 11:02:10;;;;;;;;;;;;;;;;;;4117263;28;1376740;-63
2023/11/24 11:04:15;;;;;;;;;;;;;;;;;;4166871;28;19929;-63
2023/11/24 11:06:17;;;;;;;;;;;;;;;;;;4175121;28;19970;-63
2023/11/24 11:08:19;;;;;;;;;;;;;;;;;;4149908;28;20019;-63
2023/11/24 11:10:25;;;;;;;;;;;;;;;;;;4164735;28;19925;-63
2023/11/24 11:12:30;;;;;;;;;;;;;;;;;;4151178;28;19930;-63
2023/11/24 11:14:32;;;;;;;;;;;;;;;;;;4161291;28;19935;-63
2023/11/24 11:16:37;;;;;;;;;;;;;;;;;;4160202;28;19921;-63
2023/11/24 11:18:38;;;;;;;;;;;;;;;;;;4165748;28;20027;-63
2023/11/24 11:20:44;;;;;;;;;;;;;;;;;;4163642;28;19988;-62
2023/11/24 11:22:46;;;;;;;;;;;;;;;;;;4163921;28;19967;-63
2023/11/24 11:24:48;;;;;;;;;;;;;;;;;;4165067;28;19925;-63
2023/11/24 11:26:50;;;;;;;;;;;;;;;;;;4166135;28;20427;-63
2023/11/24 11:28:53;;;;;;;;;;;;;;;;;;4165984;28;19955;-63
2023/11/24 11:30:55;;;;;;;;;;;;;;;;;;4160203;28;20356;-63
2023/11/24 11:32:57;;;;;;;;;;;;;;;;;;4160468;28;20075;-63
2023/11/24 11:34:58;;;;;;;;;;;;;;;;;;4155813;28;19928;-63
2023/11/24 11:37:07;;;;;;;;;;;;;;;;;;4166008;28;19936;-63
2023/11/24 11:39:09;;;;;;;;;;;;;;;;;;4166213;28;19943;-63
2023/11/24 11:41:10;;;;;;;;;;;;;;;;;;4166785;28;20261;-63
2023/11/24 11:43:13;;;;;;;;;;;;;;;;;;4165832;28;19940;-62
2023/11/24 11:45:16;;;;;;;;;;;;;;;;;;4165458;28;19929;-63
2023/11/24 11:47:26;;;;;;;;;;;;;;;;;;4166446;28;19921;-63
2023/11/24 11:49:28;;;;;;;;;;;;;;;;;;4162749;28;20955;-62
2023/11/24 11:51:31;;;;;;;;;;;;;;;;;;4158105;28;20428;-62
2023/11/24 11:53:38;;;;;;;;;;;;;;;;;;4157902;28;20028;-63
2023/11/24 11:55:40;;;;;;;;;;;;;;;;;;4159537;28;19921;-62
2023/11/24 11:57:42;;;;;;;;;;;;;;;;;;4161600;28;19925;-63
2023/11/24 11:59:46;;;;;;;;;;;;;;;;;;4163589;28;19963;-63
2023/11/24 12:01:48;;;;;;;;;;;;;;;;;;4165732;28;19921;-63
2023/11/24 12:03:50;;;;;;;;;;;;;;;;;;4162397;28;19921;-62
2023/11/24 12:05:51;;;;;;;;;;;;;;;;;;4152811;28;19971;-62
2023/11/24 12:07:53;;;;;;;;;;;;;;;;;;4160012;28;19936;-63
2023/11/24 12:09:54;;;;;;;;;;;;;;;;;;4158439;28;19925;-63
2023/11/24 12:11:56;;;;;;;;;;;;;;;;;;4165827;28;20007;-63
2023/11/24 12:13:57;;;;;;;;;;;;;;;;;;4166192;28;19975;-62
2023/11/24 12:15:59;;;;;;;;;;;;;;;;;;4156627;28;19925;-62
2023/11/24 12:18:01;;;;;;;;;;;;;;;;;;4147955;28;20043;-62
2023/11/24 12:20:03;;;;;;;;;;;;;;;;;;4164832;28;20352;-63
2023/11/24 12:22:05;;;;;;;;;;;;;;;;;;4166047;28;19921;-62
2023/11/24 12:24:06;;;;;;;;;;;;;;;;;;4165508;28;20415;-63
2023/11/24 12:26:15;;;;;;;;;;;;;;;;;;4161146;28;19929;-62
2023/11/24 12:28:17;;;;;;;;;;;;;;;;;;4163297;28;19925;-63
2023/11/24 12:30:19;;;;;;;;;;;;;;;;;;4159581;28;19960;-62
2023/11/24 12:32:20;;;;;;;;;;;;;;;;;;4158326;28;19988;-62
2023/11/24 12:34:22;;;;;;;;;;;;;;;;;;4149594;28;19943;-62
2023/11/24 12:36:23;;;;;;;;;;;;;;;;;;4157477;28;19972;-62
2023/11/24 12:38:25;;;;;;;;;;;;;;;;;;4165709;28;19929;-62
2023/11/24 12:40:27;;;;;;;;;;;;;;;;;;4165946;28;19927;-62
2023/11/24 12:42:29;;;;;;;;;;;;;;;;;;4165832;28;20400;-62
2023/11/24 12:44:36;;;;;;;;;;;;;;;;;;4165585;28;20372;-63
2023/11/24 12:46:38;;;;;;;;;;;;;;;;;;4159098;28;19921;-59
2023/11/24 12:48:41;;;;;;;;;;;;;;;;;;4150928;28;19922;-58
2023/11/24 12:50:42;;;;;;;;;;;;;;;;;;4165434;28;20013;-59
2023/11/24 12:52:44;;;;;;;;;;;;;;;;;;4165439;28;20015;-59
2023/11/24 12:54:46;;;;;;;;;;;;;;;;;;4165491;28;19921;-59
2023/11/24 12:56:47;;;;;;;;;;;;;;;;;;4165691;28;19924;-59
2023/11/24 12:58:52;;;;;;;;;;;;;;;;;;4165378;28;19931;-59
2023/11/24 13:00:54;;;;;;;;;;;;;;;;;;4169281;28;19925;-58
2023/11/24 13:02:55;;;;;;;;;;;;;;;;;;4181796;28;19926;-58
2023/11/24 13:04:57;;;;;;;;;;;;;;;;;;4181740;28;20391;-59
2023/11/24 13:06:58;;;;;;;;;;;;;;;;;;4166306;28;20295;-59
2023/11/24 13:09:00;;;;;;;;;;;;;;;;;;4168576;28;20430;-59
2023/11/24 13:11:02;;;;;;;;;;;;;;;;;;4164002;28;19921;-59
2023/11/24 13:13:05;;;;;;;;;;;;;;;;;;4165377;28;20277;-58
2023/11/24 13:15:07;;;;;;;;;;;;;;;;;;4164250;28;19967;-59
2023/11/24 13:17:09;;;;;;;;;;;;;;;;;;4164392;28;19978;-59
2023/11/24 13:19:11;;;;;;;;;;;;;;;;;;4164779;28;19975;-59
2023/11/24 13:21:12;;;;;;;;;;;;;;;;;;4164953;28;19924;-58
2023/11/24 13:23:14;;;;;;;;;;;;;;;;;;4159457;28;19931;-59
2023/11/24 13:25:16;;;;;;;;;;;;;;;;;;4156330;28;19932;-59
2023/11/24 13:27:17;;;;;;;;;;;;;;;;;;4154500;28;19921;-58
2023/11/24 13:29:19;;;;;;;;;;;;;;;;;;4163594;28;19921;-67
2023/11/24 13:31:22;;;;;;;;;;;;;;;;;;4164807;28;19921;-67
2023/11/24 13:33:25;;;;;;;;;;;;;;;;;;4146869;28;19921;-67
2023/11/24 13:35:27;;;;;;;;;;;;;;;;;;4164784;28;19927;-67
2023/11/24 13:37:28;;;;;;;;;;;;;;;;;;4157010;28;19926;-68
2023/11/24 13:39:32;;;;;;;;;;;;;;;;;;4156511;28;19932;-68
2023/11/24 13:41:33;;;;;;;;;;;;;;;;;;4152513;28;19921;-67
2023/11/24 13:43:36;;;;;;;;;;;;;;;;;;4148928;28;19928;-66
2023/11/24 13:45:38;;;;;;;;;;;;;;;;;;4148631;28;20258;-67
2023/11/24 13:47:39;;;;;;;;;;;;;;;;;;4147435;28;19921;-67
2023/11/24 13:49:41;;;;;;;;;;;;;;;;;;4148516;28;19925;-67
2023/11/24 13:51:42;;;;;;;;;;;;;;;;;;4131292;28;20320;-67
2023/11/24 13:53:50;;;;;;;;;;;;;;;;;;4151679;28;19932;-67